createdAt,value
2022-11-05T00:02:16.491Z,56
2022-11-05T00:04:47.569Z,52
2022-11-05T00:07:18.914Z,56
2022-11-05T00:09:49.595Z,57
2022-11-05T00:12:21.063Z,62
2022-11-05T00:14:51.867Z,62
2022-11-05T00:17:23.113Z,58
2022-11-05T00:19:54.113Z,65
2022-11-05T00:22:25.062Z,64
2022-11-05T00:24:56.504Z,68
2022-11-05T00:27:27.424Z,63
2022-11-05T00:29:58.827Z,71
2022-11-05T00:32:30.190Z,61
2022-11-05T00:35:01.786Z,62
2022-11-05T00:37:33.314Z,57
2022-11-05T00:40:04.676Z,68
2022-11-05T00:42:36.061Z,57
2022-11-05T00:45:07.262Z,61
2022-11-05T00:47:37.848Z,61
2022-11-05T00:50:08.448Z,64
2022-11-05T00:52:39.109Z,60
2022-11-05T00:55:10.037Z,60
2022-11-05T00:57:41.457Z,64
2022-11-05T01:00:11.972Z,60
2022-11-05T01:02:43.445Z,60
2022-11-05T01:05:14.982Z,64
2022-11-05T01:07:46.220Z,58
2022-11-05T01:10:17.200Z,60
2022-11-05T01:12:48.428Z,64
2022-11-05T01:15:19.714Z,62
2022-11-05T01:17:50.728Z,60
2022-11-05T01:20:21.392Z,56
2022-11-05T01:22:52.587Z,65
2022-11-05T01:25:23.941Z,62
2022-11-05T01:27:55.297Z,65
2022-11-05T01:30:26.759Z,58
2022-11-05T01:32:58.061Z,59
2022-11-05T01:35:28.326Z,58
2022-11-05T01:37:59.425Z,59
2022-11-05T01:40:30.130Z,57
2022-11-05T01:43:01.429Z,54
2022-11-05T01:45:32.001Z,53
2022-11-05T01:48:03.506Z,54
2022-11-05T01:50:34.376Z,49
2022-11-05T01:53:05.544Z,48
2022-11-05T01:55:36.847Z,52
2022-11-05T01:58:06.977Z,48
2022-11-05T02:00:37.670Z,42
2022-11-05T02:03:08.689Z,47
2022-11-05T02:05:39.501Z,50
2022-11-05T02:08:10.348Z,58
2022-11-05T02:10:41.515Z,52
2022-11-05T02:13:13.276Z,55
2022-11-05T02:15:44.392Z,64
2022-11-05T02:18:15.577Z,70
2022-11-05T02:20:51.923Z,69
2022-11-05T02:23:17.912Z,72
2022-11-05T02:25:48.679Z,75
2022-11-05T02:28:19.363Z,84
2022-11-05T02:30:50.823Z,74
2022-11-05T02:33:21.806Z,76
2022-11-05T02:35:53.279Z,80
2022-11-05T02:38:24.211Z,73
2022-11-05T02:40:55.428Z,76
2022-11-05T02:43:25.905Z,78
2022-11-05T02:45:56.536Z,76
2022-11-05T02:48:28.208Z,76
2022-11-05T02:50:59.216Z,76
2022-11-05T02:53:29.774Z,76
2022-11-05T02:56:01.475Z,72
2022-11-05T02:58:32.416Z,78
2022-11-05T03:01:03.670Z,72
2022-11-05T03:03:34.184Z,79
2022-11-05T03:06:05.233Z,75
2022-11-05T03:08:36.959Z,68
2022-11-05T03:11:08.622Z,75
2022-11-05T03:13:39.704Z,68
2022-11-05T03:16:10.785Z,69
2022-11-05T03:18:41.387Z,68
2022-11-05T03:21:13.158Z,69
2022-11-05T03:23:43.954Z,71
2022-11-05T03:26:15.683Z,75
2022-11-05T03:28:46.834Z,72
2022-11-05T03:31:18.366Z,64
2022-11-05T03:33:49.555Z,68
2022-11-05T03:36:20.528Z,64
2022-11-05T03:38:51.431Z,63
2022-11-05T03:41:22.184Z,56
2022-11-05T03:43:53.158Z,67
2022-11-05T03:46:24.081Z,66
2022-11-05T03:48:55.651Z,55
2022-11-05T03:51:26.310Z,61
2022-11-05T03:53:58.041Z,60
2022-11-05T03:56:29.848Z,60
2022-11-05T03:59:01.678Z,56
2022-11-05T04:01:32.677Z,58
2022-11-05T04:04:03.917Z,66
2022-11-05T04:06:34.705Z,62
2022-11-05T04:09:05.636Z,57
2022-11-05T04:11:36.066Z,60
2022-11-05T04:14:07.100Z,56
2022-11-05T04:16:38.188Z,50
2022-11-05T04:19:09.821Z,56
2022-11-05T04:21:41.644Z,55
2022-11-05T04:24:12.493Z,56
2022-11-05T04:26:43.509Z,52
2022-11-05T04:29:14.807Z,51
2022-11-05T04:31:46.968Z,56
2022-11-05T04:34:17.290Z,51
2022-11-05T04:36:48.813Z,51
2022-11-05T04:39:19.583Z,48
2022-11-05T04:41:51.086Z,53
2022-11-05T04:44:22.762Z,51
2022-11-05T04:46:53.461Z,54
2022-11-05T04:49:24.605Z,53
2022-11-05T04:51:56.584Z,56
2022-11-05T04:54:28.015Z,46
2022-11-05T04:56:59.133Z,49
2022-11-05T04:59:31.269Z,48
2022-11-05T05:02:02.641Z,44
2022-11-05T05:04:34.059Z,39
2022-11-05T05:07:05.006Z,46
2022-11-05T05:09:36.249Z,44
2022-11-05T05:12:06.840Z,51
2022-11-05T05:14:38.163Z,47
2022-11-05T05:17:09.741Z,45
2022-11-05T05:19:41.261Z,48
2022-11-05T05:22:13.309Z,45
2022-11-05T05:24:48.657Z,45
2022-11-05T05:27:16.003Z,40
2022-11-05T05:29:47.923Z,47
2022-11-05T05:32:19.182Z,44
2022-11-05T05:34:50.305Z,40
2022-11-05T05:37:21.175Z,51
2022-11-05T05:39:51.678Z,38
2022-11-05T05:42:22.952Z,51
2022-11-05T05:44:53.855Z,44
2022-11-05T05:47:25.045Z,48
2022-11-05T05:49:56.655Z,55
2022-11-05T05:52:28.079Z,44
2022-11-05T05:54:59.078Z,51
2022-11-05T05:57:31.171Z,45
2022-11-05T06:00:03.157Z,47
2022-11-05T06:02:34.253Z,49
2022-11-05T06:05:05.825Z,48
2022-11-05T06:07:37.542Z,52
2022-11-05T06:10:06.675Z,53
2022-11-05T06:12:37.430Z,52
2022-11-05T06:15:08.698Z,51
2022-11-05T06:17:40.422Z,52
2022-11-05T06:20:11.546Z,48
2022-11-05T06:22:42.200Z,50
2022-11-05T06:25:13.761Z,59
2022-11-05T06:27:44.848Z,53
2022-11-05T06:30:16.796Z,55
2022-11-05T06:32:48.044Z,61
2022-11-05T06:35:18.887Z,52
2022-11-05T06:37:50.499Z,52
2022-11-05T06:40:22.002Z,52
2022-11-05T06:42:53.327Z,60
2022-11-05T06:45:24.574Z,56
2022-11-05T06:47:56.201Z,59
2022-11-05T06:50:28.085Z,56
2022-11-05T06:52:58.935Z,57
2022-11-05T06:55:29.659Z,69
2022-11-05T06:58:01.429Z,60
2022-11-05T07:00:32.488Z,56
2022-11-05T07:03:03.945Z,59
2022-11-05T07:05:34.787Z,60
2022-11-05T07:08:06.202Z,56
2022-11-05T07:10:36.586Z,60
2022-11-05T07:13:08.785Z,64
2022-11-05T07:15:38.253Z,64
2022-11-05T07:18:09.383Z,67
2022-11-05T07:20:40.708Z,58
2022-11-05T07:23:12.692Z,67
2022-11-05T07:25:43.805Z,64
2022-11-05T07:28:14.654Z,64
2022-11-05T07:30:45.572Z,64
2022-11-05T07:33:16.726Z,64
2022-11-05T07:35:47.741Z,62
2022-11-05T07:38:18.529Z,71
2022-11-05T07:40:49.711Z,66
2022-11-05T07:43:20.968Z,60
2022-11-05T07:45:52.335Z,60
2022-11-05T07:48:23.965Z,63
2022-11-05T07:50:54.544Z,63
2022-11-05T07:53:25.817Z,63
2022-11-05T07:55:57.061Z,68
2022-11-05T07:58:28.211Z,58
2022-11-05T08:01:00.125Z,65
2022-11-05T08:03:31.499Z,67
2022-11-05T08:06:02.429Z,67
2022-11-05T08:08:33.927Z,61
2022-11-05T08:11:04.817Z,73
2022-11-05T08:13:35.505Z,61
2022-11-05T08:16:06.794Z,65
2022-11-05T08:18:37.914Z,62
2022-11-05T08:21:09.217Z,65
2022-11-05T08:23:41.828Z,68
2022-11-05T08:26:13.662Z,69
2022-11-05T08:28:44.888Z,71
2022-11-05T08:31:17.054Z,69
2022-11-05T08:33:48.240Z,68
2022-11-05T08:36:19.108Z,68
2022-11-05T08:38:50.867Z,72
2022-11-05T08:41:22.796Z,72
2022-11-05T08:43:54.467Z,71
2022-11-05T08:46:26.909Z,63
2022-11-05T08:48:56.734Z,68
2022-11-05T08:51:29.481Z,65
2022-11-05T08:54:01.033Z,68
2022-11-05T08:56:32.606Z,69
2022-11-05T08:59:04.088Z,69
2022-11-05T09:01:35.462Z,70
2022-11-05T09:04:06.787Z,67
2022-11-05T09:06:38.061Z,69
2022-11-05T09:09:09.607Z,72
2022-11-05T09:12:05.639Z,72
2022-11-05T09:14:11.465Z,68
2022-11-05T09:16:42.471Z,64
2022-11-05T09:19:14.064Z,68
2022-11-05T09:21:45.662Z,64
2022-11-05T09:24:17.508Z,68
2022-11-05T09:26:48.643Z,68
2022-11-05T09:29:20.440Z,69
2022-11-05T09:31:52.114Z,68
2022-11-05T09:34:23.650Z,68
2022-11-05T09:36:54.843Z,61
2022-11-05T09:39:26.112Z,68
2022-11-05T09:41:57.303Z,63
2022-11-05T09:44:29.211Z,67
2022-11-05T09:46:59.865Z,61
2022-11-05T09:49:31.531Z,59
2022-11-05T09:52:03.167Z,63
2022-11-05T09:54:34.600Z,66
2022-11-05T09:57:05.581Z,64
2022-11-05T09:59:36.650Z,60
2022-11-05T10:02:08.494Z,69
2022-11-05T10:04:39.621Z,72
2022-11-05T10:07:10.568Z,73
2022-11-05T10:09:42.394Z,67
2022-11-05T10:12:13.589Z,68
2022-11-05T10:14:45.600Z,69
2022-11-05T10:17:16.463Z,68
2022-11-05T10:19:47.431Z,76
2022-11-05T10:22:19.186Z,76
2022-11-05T10:24:50.341Z,68
2022-11-05T10:27:19.894Z,73
2022-11-05T10:29:51.070Z,66
2022-11-05T10:32:22.202Z,65
2022-11-05T10:34:54.285Z,60
2022-11-05T10:37:25.753Z,56
2022-11-05T10:39:56.577Z,49
2022-11-05T10:42:27.501Z,52
2022-11-05T10:44:59.169Z,52
2022-11-05T10:47:30.562Z,52
2022-11-05T10:50:01.683Z,41
2022-11-05T10:52:33.440Z,47
2022-11-05T10:55:04.673Z,49
2022-11-05T10:57:35.705Z,50
2022-11-05T11:00:07.423Z,44
2022-11-05T11:02:38.893Z,36
2022-11-05T11:05:10.528Z,30
2022-11-05T11:07:41.549Z,35
2022-11-05T11:10:13.034Z,37
2022-11-05T11:12:44.373Z,32
2022-11-05T11:15:15.163Z,40
2022-11-05T11:17:46.494Z,41
2022-11-05T11:20:18.093Z,34
2022-11-05T11:22:48.719Z,31
2022-11-05T11:25:20.507Z,38
2022-11-05T11:27:51.993Z,38
2022-11-05T11:30:23.251Z,26
2022-11-05T11:32:54.322Z,35
2022-11-05T11:35:26.124Z,40
2022-11-05T11:37:58.218Z,60
2022-11-05T11:40:29.990Z,39
2022-11-05T11:43:00.780Z,46
2022-11-05T11:45:31.669Z,34
2022-11-05T11:48:02.547Z,51
2022-11-05T11:50:34.483Z,45
2022-11-05T11:53:06.300Z,36
2022-11-05T11:55:37.070Z,29
2022-11-05T11:58:08.428Z,32
2022-11-05T12:00:40.657Z,28
2022-11-05T12:03:12.191Z,31
2022-11-05T12:05:44.143Z,34
2022-11-05T12:08:15.710Z,28
2022-11-05T12:10:47.330Z,32
2022-11-05T12:13:18.702Z,34
2022-11-05T12:15:50.164Z,22
2022-11-05T12:18:21.988Z,51
2022-11-05T12:20:57.926Z,29
2022-11-05T12:23:24.946Z,20
2022-11-05T12:25:56.180Z,24
2022-11-05T12:28:29.360Z,24
2022-11-05T12:31:00.361Z,22
2022-11-05T12:33:31.409Z,22
2022-11-05T12:36:02.625Z,21
2022-11-05T12:38:34.798Z,20
2022-11-05T12:41:06.440Z,22
2022-11-05T12:43:37.632Z,18
2022-11-05T12:46:08.939Z,20
2022-11-05T12:48:40.581Z,14
2022-11-05T12:51:12.168Z,16
2022-11-05T12:53:43.864Z,16
2022-11-05T12:56:14.990Z,18
2022-11-05T12:58:46.806Z,16
2022-11-05T13:01:18.442Z,20
2022-11-05T13:03:49.997Z,16
2022-11-05T13:06:21.241Z,20
2022-11-05T13:08:52.648Z,18
2022-11-05T13:11:24.156Z,22
2022-11-05T13:13:55.355Z,20
2022-11-05T13:16:26.582Z,22
2022-11-05T13:18:58.271Z,23
2022-11-05T13:21:29.661Z,25
2022-11-05T13:24:01.387Z,20
2022-11-05T13:26:33.312Z,16
2022-11-05T13:29:04.942Z,16
2022-11-05T13:31:36.617Z,20
2022-11-05T13:34:08.012Z,19
2022-11-05T13:36:38.852Z,21
2022-11-05T13:39:10.284Z,24
2022-11-05T13:41:42.001Z,25
2022-11-05T13:44:14.363Z,30
2022-11-05T13:46:45.254Z,28
2022-11-05T13:49:16.338Z,28
2022-11-05T13:51:47.726Z,20
2022-11-05T13:54:19.447Z,58
2022-11-05T13:56:50.319Z,44
2022-11-05T13:59:22.051Z,51
2022-11-05T14:01:55.336Z,42
2022-11-05T14:04:26.660Z,28
2022-11-05T14:06:57.347Z,41
2022-11-05T14:09:29.408Z,32
2022-11-05T14:12:00.726Z,32
2022-11-05T14:14:30.923Z,31
2022-11-05T14:17:01.900Z,25
2022-11-05T14:19:34.354Z,20
2022-11-05T14:22:06.128Z,22
2022-11-05T14:24:38.689Z,23
2022-11-05T14:27:09.735Z,20
2022-11-05T14:29:41.321Z,24
2022-11-05T14:32:12.596Z,28
2022-11-05T14:34:43.744Z,28
2022-11-05T14:37:14.523Z,25
2022-11-05T14:39:46.445Z,33
2022-11-05T14:42:17.347Z,32
2022-11-05T14:44:49.151Z,36
2022-11-05T14:47:20.098Z,25
2022-11-05T14:49:51.140Z,28
2022-11-05T14:52:22.195Z,30
2022-11-05T14:54:53.418Z,35
2022-11-05T14:57:24.665Z,32
2022-11-05T14:59:56.769Z,36
2022-11-05T15:02:29.100Z,26
2022-11-05T15:05:04.398Z,28
2022-11-05T15:07:35.166Z,29
2022-11-05T15:10:10.457Z,28
2022-11-05T15:12:41.313Z,29
2022-11-05T15:15:17.352Z,24
2022-11-05T15:17:45.186Z,28
2022-11-05T15:20:17.027Z,33
2022-11-05T15:22:48.757Z,39
2022-11-05T15:25:20.068Z,31
2022-11-05T15:27:51.978Z,32
2022-11-05T15:30:23.488Z,32
2022-11-05T15:32:55.063Z,34
2022-11-05T15:35:26.173Z,28
2022-11-05T15:38:01.979Z,31
2022-11-05T15:40:29.377Z,32
2022-11-05T15:43:00.600Z,35
2022-11-05T15:45:31.830Z,32
2022-11-05T15:48:02.874Z,35
2022-11-05T15:50:34.130Z,33
2022-11-05T15:53:27.698Z,32
2022-11-05T15:55:36.901Z,42
2022-11-05T15:58:06.409Z,45
2022-11-05T16:00:37.194Z,44
2022-11-05T16:03:09.681Z,46
2022-11-05T16:05:41.602Z,40
2022-11-05T16:08:13.546Z,34
2022-11-05T16:10:44.954Z,42
2022-11-05T16:13:16.799Z,42
2022-11-05T16:15:47.922Z,36
2022-11-05T16:18:19.408Z,40
2022-11-05T16:20:51.182Z,46
2022-11-05T16:23:22.638Z,48
2022-11-05T16:25:53.367Z,46
2022-11-05T16:28:25.302Z,52
2022-11-05T16:30:57.445Z,52
2022-11-05T16:33:29.439Z,50
2022-11-05T16:36:01.366Z,51
2022-11-05T16:38:32.278Z,51
2022-11-05T16:41:03.571Z,60
2022-11-05T16:43:34.540Z,55
2022-11-05T16:46:06.004Z,57
2022-11-05T16:48:36.793Z,61
2022-11-05T16:51:08.156Z,53
2022-11-05T16:53:39.582Z,52
2022-11-05T16:56:11.581Z,54
2022-11-05T16:58:43.302Z,53
2022-11-05T17:01:14.348Z,52
2022-11-05T17:03:45.827Z,48
2022-11-05T17:06:17.426Z,53
2022-11-05T17:08:48.754Z,53
2022-11-05T17:11:20.392Z,54
2022-11-05T17:13:51.589Z,63
2022-11-05T17:16:22.711Z,48
2022-11-05T17:18:53.941Z,59
2022-11-05T17:21:25.393Z,52
2022-11-05T17:23:57.113Z,54
2022-11-05T17:26:28.826Z,52
2022-11-05T17:28:59.666Z,52
2022-11-05T17:31:31.738Z,52
2022-11-05T17:34:03.169Z,55
2022-11-05T17:36:34.541Z,56
2022-11-05T17:39:05.741Z,60
2022-11-05T17:41:37.028Z,53
2022-11-05T17:44:07.927Z,53
2022-11-05T17:46:38.703Z,55
2022-11-05T17:49:10.259Z,48
2022-11-05T17:51:43.424Z,53
2022-11-05T17:54:14.714Z,56
2022-11-05T17:56:46.270Z,49
2022-11-05T17:59:16.971Z,56
2022-11-05T18:01:48.346Z,58
2022-11-05T18:04:19.235Z,52
2022-11-05T18:06:50.862Z,65
2022-11-05T18:09:21.924Z,64
2022-11-05T18:11:53.946Z,56
2022-11-05T18:14:26.229Z,58
2022-11-05T18:16:57.116Z,56
2022-11-05T18:19:29.628Z,50
2022-11-05T18:22:00.679Z,51
2022-11-05T18:24:34.093Z,55
2022-11-05T18:27:06.320Z,56
2022-11-05T18:29:37.489Z,52
2022-11-05T18:32:09.194Z,55
2022-11-05T18:34:40.922Z,52
2022-11-05T18:37:13.304Z,50
2022-11-05T18:39:44.583Z,47
2022-11-05T18:42:15.739Z,53
2022-11-05T18:44:47.085Z,52
2022-11-05T18:47:18.461Z,54
2022-11-05T18:49:49.415Z,55
2022-11-05T18:52:20.827Z,49
2022-11-05T18:54:50.374Z,60
2022-11-05T18:57:21.538Z,60
2022-11-05T18:59:52.962Z,57
2022-11-05T19:02:24.671Z,57
2022-11-05T19:05:22.381Z,68
2022-11-05T19:07:29.293Z,60
2022-11-05T19:10:00.921Z,56
2022-11-05T19:12:32.076Z,57
2022-11-05T19:15:03.803Z,52
2022-11-05T19:17:36.015Z,51
2022-11-05T19:20:07.209Z,56
2022-11-05T19:22:38.083Z,58
2022-11-05T19:25:09.573Z,64
2022-11-05T19:27:40.826Z,64
2022-11-05T19:30:14.786Z,56
2022-11-05T19:32:47.947Z,60
2022-11-05T19:35:19.576Z,59
2022-11-05T19:37:51.578Z,57
2022-11-05T19:40:22.765Z,63
2022-11-05T19:42:53.962Z,65
2022-11-05T19:47:56.541Z,59
2022-11-05T19:50:28.579Z,72
2022-11-05T19:53:01.005Z,62
2022-11-05T19:55:32.187Z,59
2022-11-05T19:58:03.340Z,65
2022-11-05T20:00:34.890Z,64
2022-11-05T20:03:06.268Z,64
2022-11-05T20:05:38.128Z,64
2022-11-05T20:08:10.220Z,62
2022-11-05T20:10:40.791Z,62
2022-11-05T20:13:15.603Z,56
2022-11-05T20:15:44.572Z,59
2022-11-05T20:18:16.284Z,68
2022-11-05T20:20:48.068Z,64
2022-11-05T20:23:20.433Z,64
2022-11-05T20:25:52.194Z,58
2022-11-05T20:28:23.693Z,59
2022-11-05T20:30:54.795Z,64
2022-11-05T20:33:26.225Z,62
2022-11-05T20:35:57.269Z,58
2022-11-05T20:38:29.732Z,56
2022-11-05T20:41:01.393Z,71
2022-11-05T20:43:33.785Z,62
2022-11-05T20:46:05.666Z,61
2022-11-05T20:48:37.026Z,63
2022-11-05T20:51:08.502Z,64
2022-11-05T20:53:41.136Z,62
2022-11-05T20:56:13.275Z,63
2022-11-05T20:58:44.503Z,60
2022-11-05T21:01:16.450Z,66
2022-11-05T21:03:48.902Z,61
2022-11-05T21:06:19.975Z,76
2022-11-05T21:08:52.920Z,72
2022-11-05T21:11:24.125Z,63
2022-11-05T21:13:55.472Z,63
2022-11-05T21:16:27.153Z,64
2022-11-05T21:18:58.316Z,58
2022-11-05T21:21:29.872Z,59
2022-11-05T21:24:01.308Z,60
2022-11-05T21:26:32.640Z,55
2022-11-05T21:29:04.085Z,62
2022-11-05T21:31:35.669Z,55
2022-11-05T21:34:06.796Z,57
2022-11-05T21:36:37.870Z,66
2022-11-05T21:39:13.367Z,59
2022-11-05T21:41:40.818Z,60
2022-11-05T21:44:11.847Z,62
2022-11-05T21:46:43.356Z,57
2022-11-05T21:49:14.592Z,59
2022-11-05T21:51:46.892Z,55
2022-11-05T21:54:18.313Z,59
2022-11-05T21:56:50.667Z,60
2022-11-05T21:59:25.708Z,57
2022-11-05T22:01:57.418Z,63
2022-11-05T22:04:29.183Z,56
2022-11-05T22:07:00.757Z,56
2022-11-05T22:09:32.128Z,60
2022-11-05T22:12:03.635Z,64
2022-11-05T22:14:37.285Z,53
2022-11-05T22:17:09.536Z,56
2022-11-05T22:19:41.357Z,63
2022-11-05T22:22:12.168Z,56
2022-11-05T22:24:43.979Z,53
2022-11-05T22:27:15.204Z,66
2022-11-05T22:29:48.728Z,54
2022-11-05T22:32:19.991Z,54
2022-11-05T22:34:51.168Z,55
2022-11-05T22:37:22.810Z,55
2022-11-05T22:39:54.810Z,52
2022-11-05T22:42:26.874Z,61
2022-11-05T22:44:58.665Z,63
2022-11-05T22:47:30.368Z,67
2022-11-05T22:50:02.486Z,59
2022-11-05T22:52:33.786Z,60
2022-11-05T22:55:05.042Z,60
2022-11-05T22:57:37.067Z,64
2022-11-05T23:00:10.360Z,55
2022-11-05T23:02:42.217Z,54
2022-11-05T23:05:17.255Z,53
2022-11-05T23:07:48.798Z,54
2022-11-05T23:10:20.042Z,65
2022-11-05T23:12:50.841Z,56
2022-11-05T23:15:22.100Z,56
2022-11-05T23:17:53.011Z,63
2022-11-05T23:20:24.178Z,63
2022-11-05T23:22:55.309Z,57
2022-11-05T23:25:26.965Z,61
2022-11-05T23:27:58.042Z,61
2022-11-05T23:30:29.606Z,65
2022-11-05T23:33:00.711Z,56
2022-11-05T23:35:31.478Z,60
2022-11-05T23:38:02.167Z,58
2022-11-05T23:40:33.245Z,57
2022-11-05T23:43:04.268Z,57
2022-11-05T23:45:35.143Z,58
2022-11-05T23:48:06.187Z,61
2022-11-05T23:50:39.896Z,49
2022-11-05T23:53:08.623Z,53
2022-11-05T23:55:39.118Z,57
2022-11-05T23:58:10.905Z,55
